Forside
METAR-TAF:

METAR-TAF

Lufthavne :

Door County Cherryland Airport

Sturgeon Bay, Wisconsin, USA

Breddekreds: 44-51N, længdekreds: 087-25W, højde: 221 m

Aktuelle vejr

Denne rapport blev lavet for 15 minutter siden, kl. 11:56 UTC
Vind 3 kt fra vest
Temperatur 19°C
Fugtighed 83%
Tryk 1020 hPa
Sigt: 16.1 km
skyfri

METAR: KSUE 121156Z AUTO 26003KT 10SM CLR 19/16 A3011 RMK AO2 SLP192 7//// T01940161 10200 20161 53015

Tid: 07:11 (12:11 UTC)


TAF: fraværende

Vejrobservationer og prognoser fra mere end 4000 lufthavne (METAR og TAF).

De gule og røde prikker repræsenterer de meteorologiske stationer.

Flyt musen over at se navnet på stationen.

Så klik over at se vejr observationer og prognoser.

At skifte det kort: Klik på de grønne knapper med et sort kors for at zoome ind; på den grønne knap med en bindestreg for at zoome ud; eller på de grønne pile for tilstødende kort.


METAR-TAF: